Time;durP1;ratioP1;P1;durP2;ratioP2;P2;SDS_P1;SDS_P2;PMS_P1;PMS_P2;Temp;Humidity;BMP_temperature;BMP_pressure;BME280_temperature;BME280_humidity;BME280_pressure;Samples;Min_cycle;Max_cycle;Signal;HPM_P1;HPM_P2
2021/03/07 00:01:07;;;;;;;23.60;14.37;;;-2.00;1.00;;;;;;4857121;28;21024;-80
2021/03/07 00:03:30;;;;;;;22.73;14.40;;;-1.90;1.00;;;;;;4845815;28;21112;-80
2021/03/07 00:05:56;;;;;;;19.83;13.43;;;-2.00;1.00;;;;;;4839736;28;20791;-80
2021/03/07 00:08:19;;;;;;;21.37;12.30;;;-2.00;1.00;;;;;;4840521;28;20655;-80
2021/03/07 00:10:42;;;;;;;24.13;12.67;;;-2.00;1.00;;;;;;4869145;28;20608;-77
2021/03/07 00:13:06;;;;;;;19.83;11.87;;;-2.00;1.00;;;;;;4851653;28;21219;-80
2021/03/07 00:15:28;;;;;;;19.33;11.60;;;-2.00;99.90;;;;;;4837964;28;20624;-76
2021/03/07 00:17:51;;;;;;;22.17;12.77;;;-2.00;1.00;;;;;;4840122;28;20670;-80
2021/03/07 00:20:15;;;;;;;20.53;12.73;;;-2.00;99.90;;;;;;4840595;28;20648;-75
2021/03/07 00:22:38;;;;;;;22.70;12.97;;;-2.10;1.00;;;;;;4839560;28;20650;-80
2021/03/07 00:25:02;;;;;;;20.73;12.43;;;-2.10;99.90;;;;;;4843172;28;20646;-78
2021/03/07 00:27:25;;;;;;;23.90;13.47;;;-2.10;99.90;;;;;;4850823;28;20603;-80
2021/03/07 00:29:49;;;;;;;21.07;12.30;;;-2.10;1.00;;;;;;4853745;28;21042;-81
2021/03/07 00:32:11;;;;;;;20.27;12.37;;;-2.00;99.90;;;;;;4856637;28;20680;-80
2021/03/07 00:34:33;;;;;;;22.13;12.47;;;-2.10;99.90;;;;;;4852889;28;20663;-77
2021/03/07 00:36:59;;;;;;;22.07;11.63;;;-2.10;99.90;;;;;;4849886;28;21431;-81
2021/03/07 00:39:22;;;;;;;17.70;10.93;;;-2.00;99.90;;;;;;4849412;28;20636;-80
2021/03/07 00:41:46;;;;;;;20.73;11.47;;;-2.00;99.90;;;;;;4848189;28;20654;-81
2021/03/07 00:44:12;;;;;;;22.10;11.57;;;-2.00;99.90;;;;;;4849779;28;20622;-79
2021/03/07 00:46:37;;;;;;;21.87;11.93;;;-2.00;89.60;;;;;;4840763;28;20673;-79
2021/03/07 00:49:01;;;;;;;18.40;10.97;;;-2.10;99.90;;;;;;4844656;28;20722;-81
2021/03/07 00:51:24;;;;;;;17.87;11.23;;;-2.00;99.90;;;;;;4843881;28;20647;-80
2021/03/07 00:53:47;;;;;;;17.30;11.03;;;-2.10;99.90;;;;;;4845480;28;21205;-82
2021/03/07 00:56:10;;;;;;;19.83;12.13;;;-2.00;99.90;;;;;;4844152;28;20704;-81
2021/03/07 00:58:33;;;;;;;17.50;10.77;;;-2.00;99.90;;;;;;4845062;28;21007;-79
2021/03/07 01:00:56;;;;;;;21.07;11.20;;;-2.10;99.90;;;;;;4843428;28;20652;-79
2021/03/07 01:03:19;;;;;;;16.57;9.77;;;-2.10;99.90;;;;;;4847362;28;20650;-81
2021/03/07 01:05:41;;;;;;;19.87;11.03;;;-1.90;99.90;;;;;;4855815;28;20654;-81
2021/03/07 01:08:04;;;;;;;23.13;11.67;;;-2.00;99.90;;;;;;4846582;28;20669;-80
2021/03/07 01:10:30;;;;;;;17.83;11.53;;;-2.00;99.90;;;;;;4847755;28;20608;-80
2021/03/07 01:12:52;;;;;;;16.93;10.93;;;-2.10;99.90;;;;;;4846612;28;20682;-81
2021/03/07 01:15:16;;;;;;;20.20;11.50;;;-2.10;99.90;;;;;;4848560;28;20630;-79
2021/03/07 01:17:39;;;;;;;17.17;11.30;;;-2.10;99.90;;;;;;4857277;28;21216;-80
2021/03/07 01:20:06;;;;;;;19.57;10.70;;;-2.10;99.90;;;;;;4854666;28;21056;-81
2021/03/07 01:22:28;;;;;;;16.70;10.17;;;-2.20;99.90;;;;;;4820822;28;20644;-78
2021/03/07 01:24:50;;;;;;;16.13;10.60;;;-2.20;99.90;;;;;;4840606;28;20659;-82
2021/03/07 01:27:14;;;;;;;15.97;10.33;;;-2.10;99.90;;;;;;4843399;28;20620;-82
2021/03/07 01:29:37;;;;;;;18.07;10.07;;;-2.10;99.90;;;;;;4850663;28;20636;-80
2021/03/07 01:32:00;;;;;;;19.40;10.33;;;-2.00;1.00;;;;;;4849169;28;20623;-80
2021/03/07 01:34:23;;;;;;;15.27;9.37;;;-2.00;9.80;;;;;;4856808;28;21295;-78
2021/03/07 01:36:46;;;;;;;18.23;10.17;;;-1.90;1.00;;;;;;4851250;28;20669;-80
2021/03/07 01:39:08;;;;;;;15.77;9.40;;;-1.80;1.00;;;;;;4856940;28;20997;-81
2021/03/07 01:41:34;;;;;;;17.03;9.33;;;-1.90;1.00;;;;;;4842530;28;21137;-81
2021/03/07 01:43:58;;;;;;;16.83;9.67;;;-2.00;1.00;;;;;;4838626;28;21159;-81
2021/03/07 01:46:21;;;;;;;15.40;9.40;;;-2.00;1.00;;;;;;4853559;28;21118;-80
2021/03/07 01:48:45;;;;;;;14.87;9.73;;;-2.00;1.00;;;;;;4854728;28;20647;-81
2021/03/07 01:51:08;;;;;;;11.03;8.00;;;-2.00;1.00;;;;;;4839016;28;20651;-77
2021/03/07 01:53:32;;;;;;;14.43;9.13;;;-2.00;15.10;;;;;;4837768;28;20621;-81
2021/03/07 01:55:56;;;;;;;17.13;8.87;;;-2.00;1.00;;;;;;4838444;28;20690;-77
2021/03/07 01:58:22;;;;;;;13.93;8.33;;;-2.00;1.00;;;;;;4849531;28;20613;-81
2021/03/07 02:00:44;;;;;;;13.50;9.57;;;-2.00;1.00;;;;;;4839670;28;21315;-80
2021/03/07 02:03:06;;;;;;;17.00;8.47;;;-2.10;1.00;;;;;;4840598;28;20645;-79
2021/03/07 02:05:29;;;;;;;12.20;8.13;;;-2.00;1.00;;;;;;4855613;28;20596;-81
2021/03/07 02:07:51;;;;;;;13.67;8.43;;;-2.00;1.00;;;;;;4856589;28;21168;-80
2021/03/07 02:10:18;;;;;;;12.57;7.97;;;-2.00;1.00;;;;;;4848243;28;20608;-78
2021/03/07 02:12:41;;;;;;;12.50;8.00;;;-2.00;1.00;;;;;;4857042;28;20997;-81
2021/03/07 02:15:06;;;;;;;14.10;9.20;;;-2.00;1.00;;;;;;4850469;28;20612;-78
2021/03/07 02:17:28;;;;;;;14.67;9.23;;;-2.00;1.00;;;;;;4838386;28;20662;-79
2021/03/07 02:19:52;;;;;;;14.23;9.37;;;-2.10;1.00;;;;;;4841473;28;20718;-81
2021/03/07 02:22:22;;;;;;;13.97;8.47;;;-2.10;1.00;;;;;;4853996;28;20701;-78
2021/03/07 02:24:45;;;;;;;10.80;7.67;;;-2.00;1.00;;;;;;4854255;28;20625;-78
2021/03/07 02:27:07;;;;;;;13.47;8.07;;;-2.00;1.00;;;;;;4847828;28;21000;-80
2021/03/07 02:29:30;;;;;;;13.97;8.03;;;-2.10;1.00;;;;;;4837913;28;20917;-80
2021/03/07 02:31:55;;;;;;;11.37;8.10;;;-2.10;1.00;;;;;;4838854;28;21007;-78
2021/03/07 02:34:22;;;;;;;13.27;8.47;;;-2.10;1.00;;;;;;4837592;28;20652;-76
2021/03/07 02:36:48;;;;;;;13.13;8.23;;;-2.20;1.00;;;;;;4835934;28;20612;-78
2021/03/07 02:39:11;;;;;;;12.03;8.07;;;-2.20;1.00;;;;;;4849693;28;20612;-80
2021/03/07 02:41:36;;;;;;;15.17;9.07;;;-2.20;1.00;;;;;;4855632;28;21071;-80
2021/03/07 02:44:02;;;;;;;15.30;9.27;;;-2.30;1.00;;;;;;4846810;28;20608;-80
2021/03/07 02:46:25;;;;;;;13.37;9.33;;;-2.30;1.00;;;;;;4857624;28;20619;-81
2021/03/07 02:48:52;;;;;;;13.17;9.20;;;-2.20;1.00;;;;;;4836418;28;21008;-76
2021/03/07 02:51:15;;;;;;;13.87;8.60;;;-2.40;10.90;;;;;;4837344;28;20678;-81
2021/03/07 02:53:39;;;;;;;14.03;9.10;;;-2.40;99.90;;;;;;4839702;28;21181;-81
2021/03/07 02:56:05;;;;;;;16.57;9.30;;;-2.40;99.90;;;;;;4841021;28;20715;-81
2021/03/07 02:58:31;;;;;;;14.63;9.63;;;-2.50;99.90;;;;;;4836529;28;20608;-80
2021/03/07 03:00:56;;;;;;;14.83;10.27;;;-2.50;1.00;;;;;;4838711;28;20708;-81
2021/03/07 03:03:22;;;;;;;15.47;10.83;;;-1.70;1.00;;;;;;4854194;28;21182;-81
2021/03/07 03:05:45;;;;;;;15.80;11.23;;;-2.50;93.90;;;;;;4845754;28;20671;-83
2021/03/07 03:08:08;;;;;;;14.90;10.27;;;-2.50;1.00;;;;;;4845474;28;20673;-79
2021/03/07 03:10:32;;;;;;;14.10;10.40;;;-2.50;1.00;;;;;;4853556;28;20615;-80
2021/03/07 03:12:54;;;;;;;14.70;10.50;;;-2.50;1.00;;;;;;4847546;28;21020;-82
2021/03/07 03:15:19;;;;;;;14.63;9.73;;;-2.40;1.00;;;;;;4855301;28;20611;-81
2021/03/07 03:17:42;;;;;;;15.33;10.77;;;-2.50;1.00;;;;;;4859031;28;20603;-82
2021/03/07 03:20:10;;;;;;;17.93;12.43;;;-2.60;1.00;;;;;;4858354;28;20651;-78
2021/03/07 03:22:32;;;;;;;16.87;11.17;;;-2.60;1.00;;;;;;4858875;28;20611;-79
2021/03/07 03:24:55;;;;;;;15.90;11.57;;;-2.60;99.90;;;;;;4852111;28;20639;-77
2021/03/07 03:27:17;;;;;;;16.47;10.73;;;-2.40;1.00;;;;;;4854765;28;20673;-75
2021/03/07 03:29:40;;;;;;;18.13;11.10;;;-2.50;1.00;;;;;;4855321;28;20705;-79
2021/03/07 03:32:03;;;;;;;14.87;10.53;;;-2.40;1.00;;;;;;4840199;28;20663;-74
2021/03/07 03:34:26;;;;;;;12.53;9.43;;;-2.40;83.00;;;;;;4844545;28;20642;-81
2021/03/07 03:36:48;;;;;;;14.27;9.37;;;-2.50;49.50;;;;;;4840323;28;20596;-78
2021/03/07 03:39:13;;;;;;;15.63;10.20;;;-2.40;99.90;;;;;;4841071;28;20600;-82
2021/03/07 03:41:40;;;;;;;14.63;10.30;;;-2.50;99.90;;;;;;4855525;28;21014;-80
2021/03/07 03:44:07;;;;;;;17.87;9.87;;;-2.40;1.00;;;;;;4858917;28;20612;-76
2021/03/07 03:46:32;;;;;;;13.73;10.03;;;-2.40;1.00;;;;;;4857061;28;20596;-80
2021/03/07 03:49:01;;;;;;;14.70;10.20;;;-2.50;1.00;;;;;;4857808;28;20643;-82
2021/03/07 03:51:25;;;;;;;16.07;10.80;;;-2.60;1.00;;;;;;4857604;28;20592;-78
2021/03/07 03:53:49;;;;;;;15.70;9.40;;;-2.50;99.90;;;;;;4841440;28;20615;-75
2021/03/07 03:56:13;;;;;;;15.13;9.90;;;-2.50;99.90;;;;;;4855488;28;20623;-77
2021/03/07 03:58:40;;;;;;;15.30;10.17;;;-2.50;99.90;;;;;;4844361;28;20623;-79
2021/03/07 04:01:03;;;;;;;14.90;9.83;;;-2.40;99.90;;;;;;4843126;28;20666;-75
2021/03/07 04:03:26;;;;;;;15.77;11.13;;;-2.40;99.90;;;;;;4845634;28;20580;-82
2021/03/07 04:05:50;;;;;;;20.77;12.57;;;-2.40;1.00;;;;;;4847463;28;20623;-79
2021/03/07 04:08:12;;;;;;;17.13;11.13;;;-2.40;1.00;;;;;;4842213;28;20682;-81
2021/03/07 04:10:36;;;;;;;17.23;10.30;;;-2.40;1.00;;;;;;4845524;28;20624;-78
2021/03/07 04:13:00;;;;;;;17.43;10.57;;;-2.30;1.00;;;;;;4842933;28;21683;-82
2021/03/07 04:15:23;;;;;;;16.73;9.87;;;-2.50;99.90;;;;;;4855339;28;20653;-80
2021/03/07 04:17:48;;;;;;;14.23;8.80;;;-2.40;1.00;;;;;;4857141;28;20669;-81
2021/03/07 04:20:12;;;;;;;14.10;9.60;;;-2.40;99.90;;;;;;4858744;28;20627;-75
2021/03/07 04:22:35;;;;;;;13.50;9.17;;;-2.40;1.00;;;;;;4858526;28;20620;-82
2021/03/07 04:24:58;;;;;;;15.87;9.90;;;-2.40;1.00;;;;;;4851748;28;20632;-77
2021/03/07 04:27:22;;;;;;;13.60;9.30;;;-2.40;1.00;;;;;;4843752;28;20674;-81
2021/03/07 04:29:44;;;;;;;15.63;9.33;;;-2.30;1.00;;;;;;4848045;28;20702;-82
2021/03/07 04:32:07;;;;;;;15.33;9.63;;;-2.50;1.00;;;;;;4855150;28;20623;-82
2021/03/07 04:34:30;;;;;;;14.90;9.47;;;-2.30;1.00;;;;;;4846815;28;20655;-83
2021/03/07 04:36:53;;;;;;;14.20;9.30;;;-2.30;1.00;;;;;;4838558;28;20596;-83
2021/03/07 04:39:16;;;;;;;15.83;10.37;;;-2.40;1.00;;;;;;4843658;28;20654;-81
2021/03/07 04:41:38;;;;;;;13.33;8.63;;;-2.30;1.00;;;;;;4855678;28;20623;-82
2021/03/07 04:44:01;;;;;;;16.87;9.50;;;-2.20;1.00;;;;;;4858189;28;20696;-82
2021/03/07 04:46:25;;;;;;;14.70;9.63;;;-1.80;1.00;;;;;;4854429;28;20604;-81
2021/03/07 04:48:47;;;;;;;15.23;9.70;;;-2.40;1.00;;;;;;4857281;28;20698;-81
2021/03/07 04:51:09;;;;;;;14.93;9.10;;;-2.40;1.00;;;;;;4847593;28;20662;-80
2021/03/07 04:53:32;;;;;;;15.30;9.70;;;-2.30;1.00;;;;;;4847295;28;20615;-81
2021/03/07 04:55:55;;;;;;;12.17;8.80;;;-2.30;1.00;;;;;;4842566;28;21190;-84
2021/03/07 04:58:17;;;;;;;12.70;8.70;;;-2.30;1.00;;;;;;4837443;28;20675;-79
2021/03/07 05:00:39;;;;;;;12.87;7.90;;;-2.30;1.00;;;;;;4848824;28;20656;-77
2021/03/07 05:03:01;;;;;;;14.63;8.97;;;-2.30;1.00;;;;;;4854041;28;20643;-80
2021/03/07 05:05:23;;;;;;;14.30;9.33;;;-2.30;99.90;;;;;;4849426;28;20616;-82
2021/03/07 05:07:46;;;;;;;14.10;9.67;;;-2.30;99.90;;;;;;4842025;28;20678;-82
2021/03/07 05:10:09;;;;;;;15.17;9.23;;;-2.30;99.90;;;;;;4841363;28;20699;-83
2021/03/07 05:12:32;;;;;;;10.83;7.70;;;-2.30;1.00;;;;;;4853566;28;20651;-80
2021/03/07 05:14:54;;;;;;;14.27;9.07;;;-2.20;1.00;;;;;;4839456;28;20995;-83
2021/03/07 05:17:17;;;;;;;13.30;9.13;;;-2.00;99.90;;;;;;4839073;28;20671;-78
2021/03/07 05:19:39;;;;;;;13.60;8.77;;;-2.10;99.90;;;;;;4838108;28;21227;-79
2021/03/07 05:22:01;;;;;;;12.17;8.40;;;-2.10;58.40;;;;;;4847774;28;20665;-81
2021/03/07 05:24:23;;;;;;;14.17;8.83;;;-2.20;1.00;;;;;;4851653;28;20612;-82
2021/03/07 05:26:45;;;;;;;13.40;8.33;;;-2.10;36.40;;;;;;4853560;28;20674;-83
2021/03/07 05:29:08;;;;;;;12.60;8.67;;;-2.20;1.00;;;;;;4851068;28;20659;-77
2021/03/07 05:31:30;;;;;;;11.97;7.70;;;-2.10;1.00;;;;;;4849579;28;20619;-83
2021/03/07 05:33:52;;;;;;;13.17;8.37;;;-2.10;1.00;;;;;;4857075;28;21303;-82
2021/03/07 05:36:15;;;;;;;11.50;8.33;;;-1.70;1.00;;;;;;4845291;28;20667;-82
2021/03/07 05:38:38;;;;;;;12.73;8.57;;;-1.90;1.00;;;;;;4839011;28;20616;-81
2021/03/07 05:41:00;;;;;;;14.47;8.90;;;-1.90;1.00;;;;;;4847439;28;21160;-79
2021/03/07 05:43:24;;;;;;;14.87;8.87;;;-1.90;1.00;;;;;;4857043;28;20959;-82
2021/03/07 05:45:47;;;;;;;11.57;8.87;;;-1.90;1.00;;;;;;4857525;28;20703;-82
2021/03/07 05:48:09;;;;;;;13.07;9.30;;;-1.90;1.00;;;;;;4857005;28;20678;-82
2021/03/07 05:50:31;;;;;;;12.73;9.33;;;-1.80;99.90;;;;;;4854604;28;21037;-78
2021/03/07 05:52:57;;;;;;;13.73;9.73;;;-1.90;1.00;;;;;;4856908;28;20615;-81
2021/03/07 05:55:19;;;;;;;13.93;9.90;;;-1.80;99.90;;;;;;4855753;28;20608;-79
2021/03/07 05:57:45;;;;;;;13.03;8.97;;;-1.90;1.00;;;;;;4842602;28;20663;-83
2021/03/07 06:00:08;;;;;;;15.30;9.37;;;-1.90;1.00;;;;;;4838784;28;20967;-83
2021/03/07 06:02:32;;;;;;;13.00;9.43;;;-1.80;1.00;;;;;;4868650;28;20639;-81
2021/03/07 06:04:54;;;;;;;13.30;8.67;;;-1.80;1.00;;;;;;4848692;28;20608;-83
2021/03/07 06:07:17;;;;;;;14.27;10.20;;;-1.70;99.90;;;;;;4838401;28;20628;-77
2021/03/07 06:09:39;;;;;;;11.10;8.37;;;-1.70;99.90;;;;;;4841657;28;20652;-78
2021/03/07 06:12:02;;;;;;;12.00;8.20;;;-1.60;99.90;;;;;;4838657;28;20620;-82
2021/03/07 06:14:27;;;;;;;11.93;7.90;;;-1.50;99.90;;;;;;4846443;28;20662;-82
2021/03/07 06:17:04;;;;;;;11.17;7.97;;;-1.40;99.90;;;;;;4851513;28;20974;-82
2021/03/07 06:19:27;;;;;;;10.37;7.83;;;-1.30;1.00;;;;;;4838182;28;20682;-82
2021/03/07 06:21:49;;;;;;;10.53;7.20;;;-1.00;1.00;;;;;;4844967;28;20658;-84
2021/03/07 06:24:34;;;;;;;11.13;8.13;;;-1.10;1.00;;;;;;4845394;28;21068;-80
2021/03/07 06:27:04;;;;;;;11.47;8.40;;;-0.90;1.00;;;;;;4838917;28;20580;-79
2021/03/07 06:29:26;;;;;;;11.00;8.20;;;-0.80;1.00;;;;;;4839777;28;21190;-79
2021/03/07 06:31:48;;;;;;;9.73;7.23;;;-0.70;1.00;;;;;;4837441;28;20600;-86
2021/03/07 06:34:10;;;;;;;9.17;7.27;;;-0.50;99.90;;;;;;4856470;28;20639;-82
2021/03/07 06:36:33;;;;;;;10.07;7.63;;;-0.40;99.90;;;;;;4853337;28;21575;-74
2021/03/07 06:38:57;;;;;;;11.07;8.57;;;-0.20;99.90;;;;;;4838466;28;20597;-87
2021/03/07 06:41:21;;;;;;;11.23;8.43;;;-0.10;99.90;;;;;;4837813;28;20616;-79
2021/03/07 06:43:43;;;;;;;11.53;8.83;;;0.10;99.90;;;;;;4856506;28;20619;-84
2021/03/07 06:46:05;;;;;;;9.43;7.63;;;0.30;78.90;;;;;;4843159;28;20620;-85
2021/03/07 06:48:34;;;;;;;9.90;7.93;;;0.40;2.90;;;;;;4838094;28;20963;-85
2021/03/07 06:50:57;;;;;;;10.23;8.07;;;0.50;1.00;;;;;;4841155;28;21213;-80
2021/03/07 06:53:31;;;;;;;10.77;7.60;;;0.70;1.00;;;;;;4853487;28;20615;-83
2021/03/07 06:55:53;;;;;;;10.40;7.87;;;0.80;1.00;;;;;;4843451;28;20589;-79
2021/03/07 06:58:16;;;;;;;10.63;7.73;;;0.80;1.00;;;;;;4837542;28;20639;-82
2021/03/07 07:00:40;;;;;;;8.17;6.43;;;0.80;1.00;;;;;;4853775;28;20623;-80
2021/03/07 07:03:07;;;;;;;8.77;7.00;;;0.80;1.00;;;;;;4847912;28;20592;-76
2021/03/07 07:05:48;;;;;;;8.60;6.77;;;0.90;1.00;;;;;;4842756;28;20612;-77
2021/03/07 07:08:11;;;;;;;8.70;6.90;;;1.00;1.00;;;;;;4838165;28;20588;-81
2021/03/07 07:10:58;;;;;;;9.47;7.37;;;1.10;1.00;;;;;;4844958;28;20648;-80
2021/03/07 07:13:20;;;;;;;8.73;7.33;;;1.00;1.00;;;;;;4846144;28;20669;-80
2021/03/07 07:15:56;;;;;;;9.73;6.90;;;1.00;1.00;;;;;;4853783;28;20667;-79
2021/03/07 07:18:18;;;;;;;9.63;7.27;;;1.10;1.00;;;;;;4837397;28;21606;-76
2021/03/07 07:20:41;;;;;;;8.13;6.67;;;1.10;1.00;;;;;;4837811;28;20191;-79
2021/03/07 07:23:03;;;;;;;8.43;6.43;;;1.20;1.00;;;;;;4845232;28;20608;-77
2021/03/07 07:25:25;;;;;;;9.40;6.53;;;1.20;1.00;;;;;;4856311;28;20634;-79
2021/03/07 07:27:48;;;;;;;7.53;5.47;;;1.40;1.00;;;;;;4854916;28;20532;-75
2021/03/07 07:30:11;;;;;;;7.40;6.00;;;1.40;1.00;;;;;;4850738;28;20630;-84
2021/03/07 07:32:40;;;;;;;8.17;5.93;;;1.50;1.00;;;;;;4851027;28;20651;-81
2021/03/07 07:35:07;;;;;;;8.27;5.90;;;1.70;1.00;;;;;;4837421;28;20320;-83
2021/03/07 07:37:33;;;;;;;6.57;5.30;;;1.90;1.00;;;;;;4845137;28;20615;-79
2021/03/07 07:39:56;;;;;;;6.20;5.13;;;2.00;1.00;;;;;;4840769;28;20608;-77
2021/03/07 07:42:22;;;;;;;6.57;5.57;;;2.00;1.00;;;;;;4848348;28;20188;-78
2021/03/07 07:44:46;;;;;;;7.37;5.80;;;2.30;1.00;;;;;;4853694;28;20189;-82
2021/03/07 07:47:08;;;;;;;6.37;4.93;;;2.20;1.00;;;;;;4854270;28;20190;-81
2021/03/07 07:49:38;;;;;;;7.93;5.80;;;2.30;1.00;;;;;;4854240;28;20214;-79
2021/03/07 07:52:00;;;;;;;6.60;5.00;;;2.40;1.00;;;;;;4847336;28;20198;-79
2021/03/07 07:54:49;;;;;;;9.03;5.93;;;2.80;1.00;;;;;;4837068;28;21025;-86
2021/03/07 07:57:40;;;;;;;8.27;5.17;;;2.80;1.00;;;;;;4852024;28;20245;-78
2021/03/07 08:00:06;;;;;;;5.63;5.00;;;3.00;1.00;;;;;;4840294;28;20237;-80
2021/03/07 08:02:49;;;;;;;5.87;4.20;;;3.40;1.00;;;;;;4839092;28;20244;-84
2021/03/07 08:05:44;;;;;;;5.20;4.17;;;4.10;1.00;;;;;;4845430;28;20186;-82
2021/03/07 08:08:07;;;;;;;5.80;4.43;;;4.50;1.00;;;;;;4841951;28;20195;-77
2021/03/07 08:10:57;;;;;;;5.50;4.13;;;4.60;1.00;;;;;;4858021;28;20221;-78
2021/03/07 08:13:50;;;;;;;4.40;3.90;;;4.80;1.00;;;;;;4812608;28;20210;-75
2021/03/07 08:16:14;;;;;;;5.50;4.50;;;5.40;1.00;;;;;;4851373;28;20245;-82
2021/03/07 08:18:50;;;;;;;5.03;4.40;;;5.90;1.00;;;;;;4840253;28;20230;-81
2021/03/07 08:21:12;;;;;;;5.53;4.30;;;6.00;1.00;;;;;;4856161;28;20197;-78
2021/03/07 08:23:57;;;;;;;3.57;3.23;;;5.80;1.00;;;;;;4859685;28;20588;-84
2021/03/07 08:26:19;;;;;;;4.17;3.40;;;5.50;1.00;;;;;;4853563;28;20957;-77
2021/03/07 08:28:44;;;;;;;3.57;3.20;;;5.40;1.00;;;;;;4859398;28;20228;-80
2021/03/07 08:31:07;;;;;;;3.87;3.27;;;5.20;1.00;;;;;;4858186;28;20210;-85
2021/03/07 08:33:31;;;;;;;4.97;3.90;;;5.30;1.00;;;;;;4844755;28;20779;-81
2021/03/07 08:36:09;;;;;;;5.13;4.13;;;5.10;1.00;;;;;;4858185;28;20190;-82
2021/03/07 08:38:31;;;;;;;4.70;4.20;;;5.10;1.00;;;;;;4845867;28;20221;-77
2021/03/07 08:40:56;;;;;;;5.27;4.30;;;5.20;1.00;;;;;;4839956;28;20229;-78
2021/03/07 08:43:53;;;;;;;4.03;3.60;;;5.20;1.00;;;;;;4840408;28;20229;-79
2021/03/07 08:46:16;;;;;;;5.77;3.97;;;5.10;1.00;;;;;;4840430;28;20175;-78
2021/03/07 08:48:41;;;;;;;4.70;3.80;;;5.10;1.00;;;;;;4839873;28;20199;-78
2021/03/07 08:51:05;;;;;;;5.70;4.30;;;5.00;1.00;;;;;;4854270;28;20225;-78
2021/03/07 08:53:28;;;;;;;4.50;3.60;;;5.20;1.00;;;;;;4858394;28;20190;-80
2021/03/07 08:55:51;;;;;;;4.27;3.87;;;5.30;1.00;;;;;;4858112;28;20194;-77
2021/03/07 08:58:13;;;;;;;5.23;4.17;;;5.40;1.00;;;;;;4859011;28;20714;-79
2021/03/07 09:00:44;;;;;;;4.40;3.60;;;5.60;1.00;;;;;;4855319;28;20202;-78
2021/03/07 09:03:06;;;;;;;4.70;3.83;;;5.70;1.00;;;;;;4858989;28;20177;-84
2021/03/07 09:05:31;;;;;;;4.07;3.60;;;5.90;1.00;;;;;;4858626;28;20534;-80
2021/03/07 09:08:04;;;;;;;3.93;3.63;;;6.10;1.00;;;;;;4857730;28;20182;-78
2021/03/07 09:10:34;;;;;;;3.60;3.23;;;6.20;1.00;;;;;;4847431;28;20210;-82
2021/03/07 09:13:11;;;;;;;3.47;3.17;;;6.20;1.00;;;;;;4839590;28;20557;-83
2021/03/07 09:15:33;;;;;;;4.00;3.60;;;6.30;1.00;;;;;;4839872;28;20190;-87
2021/03/07 09:17:55;;;;;;;5.70;3.67;;;6.40;1.00;;;;;;4843204;28;20657;-78
2021/03/07 09:20:17;;;;;;;3.20;2.90;;;6.60;1.00;;;;;;4841647;28;20537;-76
2021/03/07 09:22:43;;;;;;;3.00;2.70;;;6.90;1.00;;;;;;4844762;28;20268;-81
2021/03/07 09:25:07;;;;;;;3.30;2.97;;;7.50;99.90;;;;;;4853719;28;20657;-85
2021/03/07 09:27:31;;;;;;;4.03;3.33;;;7.80;99.90;;;;;;4852217;28;20186;-76
2021/03/07 09:30:04;;;;;;;3.53;3.23;;;8.30;99.90;;;;;;4854138;28;20280;-79
2021/03/07 09:32:29;;;;;;;2.83;2.50;;;8.60;99.90;;;;;;4839625;28;20182;-87
2021/03/07 09:34:51;;;;;;;3.30;3.00;;;8.90;99.90;;;;;;4841860;28;20218;-78
2021/03/07 09:37:14;;;;;;;2.80;2.60;;;9.10;99.90;;;;;;4858002;28;20190;-81
2021/03/07 09:39:44;;;;;;;3.23;2.93;;;9.20;99.90;;;;;;4854963;28;20291;-85
2021/03/07 09:42:10;;;;;;;3.37;3.07;;;9.00;99.90;;;;;;4839812;28;20240;-80
2021/03/07 09:44:32;;;;;;;3.23;2.93;;;8.90;99.90;;;;;;4852701;28;20193;-78
2021/03/07 09:46:54;;;;;;;3.17;2.63;;;9.10;99.90;;;;;;4856984;28;20272;-86
2021/03/07 09:49:23;;;;;;;3.20;2.77;;;9.20;99.90;;;;;;4856793;28;20186;-83
2021/03/07 09:51:48;;;;;;;2.70;2.50;;;9.40;99.90;;;;;;4855967;28;20221;-81
2021/03/07 09:54:12;;;;;;;2.40;2.20;;;10.00;99.90;;;;;;4839720;28;20199;-82
2021/03/07 09:56:39;;;;;;;2.87;2.67;;;10.70;99.90;;;;;;4839027;28;20248;-80
2021/03/07 09:59:16;;;;;;;2.67;2.47;;;11.30;99.90;;;;;;4839423;28;20831;-80
2021/03/07 10:01:44;;;;;;;2.73;2.37;;;12.40;99.90;;;;;;4842239;28;20206;-88
2021/03/07 10:04:29;;;;;;;2.07;1.97;;;13.20;99.90;;;;;;4851343;28;20189;-81
2021/03/07 10:06:51;;;;;;;1.57;1.47;;;13.80;99.90;;;;;;4858150;28;20190;-76
2021/03/07 10:09:18;;;;;;;1.70;1.60;;;14.30;99.90;;;;;;4858056;28;20205;-87
2021/03/07 10:11:54;;;;;;;1.37;1.27;;;15.20;99.90;;;;;;4854209;28;20218;-84
2021/03/07 10:14:25;;;;;;;0.93;0.93;;;16.20;99.90;;;;;;4839209;28;20209;-80
2021/03/07 10:16:54;;;;;;;0.80;0.80;;;17.90;99.90;;;;;;4848132;28;20194;-83
2021/03/07 10:19:17;;;;;;;0.57;0.57;;;19.00;99.90;;;;;;4839030;28;20241;-79
2021/03/07 10:21:40;;;;;;;0.30;0.30;;;20.70;99.90;;;;;;4840320;28;20195;-78
2021/03/07 10:24:15;;;;;;;0.20;0.20;;;22.10;99.90;;;;;;4837831;28;20183;-80
2021/03/07 10:26:39;;;;;;;0.20;0.20;;;23.90;99.90;;;;;;4837552;28;20586;-85
2021/03/07 10:29:08;;;;;;;0.20;0.20;;;25.00;99.90;;;;;;4850002;28;21001;-79
2021/03/07 10:31:32;;;;;;;0.10;0.10;;;25.30;99.90;;;;;;4857047;28;20232;-80
2021/03/07 10:33:54;;;;;;;0.20;0.20;;;25.00;99.90;;;;;;4844612;28;20718;-77
2021/03/07 10:36:19;;;;;;;0.20;0.20;;;24.30;99.90;;;;;;4842638;28;20199;-82
2021/03/07 10:38:44;;;;;;;0.10;0.10;;;23.10;99.90;;;;;;4838744;28;20196;-79
2021/03/07 10:41:21;;;;;;;0.10;0.10;;;21.30;99.90;;;;;;4837345;28;20184;-79
2021/03/07 10:43:48;;;;;;;0.20;0.20;;;19.50;99.90;;;;;;4842730;28;20197;-80
2021/03/07 10:46:30;;;;;;;0.20;0.20;;;17.90;99.90;;;;;;4850275;28;20270;-75
2021/03/07 10:49:18;;;;;;;0.30;0.30;;;16.70;99.90;;;;;;4837903;28;20248;-88
2021/03/07 10:51:41;;;;;;;0.40;0.40;;;15.90;99.90;;;;;;4838074;28;20202;-77
2021/03/07 10:54:04;;;;;;;0.30;0.30;;;15.70;99.90;;;;;;4838349;28;20203;-74
2021/03/07 10:56:29;;;;;;;0.33;0.33;;;16.10;99.90;;;;;;4836132;28;20190;-77
2021/03/07 10:58:52;;;;;;;0.30;0.30;;;17.20;99.90;;;;;;4847690;28;20194;-80
2021/03/07 11:01:17;;;;;;;0.20;0.20;;;18.10;99.90;;;;;;4838948;28;20681;-85
2021/03/07 11:03:40;;;;;;;0.20;0.20;;;19.70;99.90;;;;;;4838160;28;21081;-78
2021/03/07 11:06:03;;;;;;;0.20;0.20;;;21.30;99.90;;;;;;4850771;28;20252;-82
2021/03/07 11:08:26;;;;;;;0.20;0.20;;;23.00;99.90;;;;;;4857282;28;20181;-83
2021/03/07 11:10:48;;;;;;;0.27;0.27;;;25.10;99.90;;;;;;4847503;28;20211;-78
2021/03/07 11:13:11;;;;;;;0.20;0.20;;;27.20;99.90;;;;;;4837583;28;20242;-78
2021/03/07 11:15:35;;;;;;;0.17;0.17;;;29.50;99.90;;;;;;4836383;28;20187;-89
2021/03/07 11:17:59;;;;;;;0.20;0.20;;;31.30;99.90;;;;;;4841590;28;20217;-86
2021/03/07 11:20:22;;;;;;;0.10;0.10;;;32.60;99.90;;;;;;4857131;28;20207;-86
2021/03/07 11:22:45;;;;;;;0.20;0.20;;;31.80;99.90;;;;;;4857294;28;20204;-80
2021/03/07 11:25:10;;;;;;;0.20;0.20;;;31.00;99.90;;;;;;4857941;28;20210;-78
2021/03/07 11:27:34;;;;;;;0.20;0.20;;;31.20;99.90;;;;;;4843445;28;20200;-89
2021/03/07 11:29:57;;;;;;;0.20;0.20;;;31.00;99.90;;;;;;4852828;28;20207;-84
2021/03/07 11:32:19;;;;;;;0.10;0.10;;;31.40;99.90;;;;;;4844180;28;20850;-76
2021/03/07 11:34:43;;;;;;;0.20;0.20;;;31.70;99.90;;;;;;4839515;28;20280;-84
2021/03/07 11:37:06;;;;;;;0.10;0.10;;;30.80;99.90;;;;;;4842278;28;20180;-79
2021/03/07 11:39:30;;;;;;;0.20;0.20;;;30.70;99.90;;;;;;4842857;28;20204;-83
2021/03/07 11:41:52;;;;;;;0.20;0.20;;;31.20;99.90;;;;;;4846266;28;20302;-82
2021/03/07 11:44:15;;;;;;;0.30;0.30;;;31.30;99.90;;;;;;4852857;28;20585;-83
2021/03/07 11:46:38;;;;;;;0.20;0.20;;;31.10;99.90;;;;;;4852428;28;21098;-82
2021/03/07 11:49:00;;;;;;;0.13;0.13;;;31.60;99.90;;;;;;4841261;28;20232;-89
2021/03/07 11:51:25;;;;;;;0.17;0.17;;;32.70;99.90;;;;;;4847961;28;20189;-84
2021/03/07 11:53:48;;;;;;;0.10;0.10;;;32.80;99.90;;;;;;4860184;28;20193;-88
2021/03/07 11:56:10;;;;;;;0.20;0.20;;;32.70;99.90;;;;;;4842246;28;20189;-81
2021/03/07 11:58:32;;;;;;;0.20;0.20;;;33.00;99.90;;;;;;4842663;28;20194;-83
2021/03/07 12:00:55;;;;;;;0.20;0.20;;;33.50;99.90;;;;;;4846082;28;20268;-83
2021/03/07 12:03:18;;;;;;;0.30;0.30;;;34.20;99.90;;;;;;4859717;28;20770;-80
2021/03/07 12:05:41;;;;;;;0.20;0.20;;;34.00;99.90;;;;;;4856886;28;20232;-88
2021/03/07 12:08:04;;;;;;;0.20;0.20;;;33.90;99.90;;;;;;4847690;28;20236;-78
2021/03/07 12:10:26;;;;;;;0.10;0.10;;;34.10;99.90;;;;;;4844236;28;20190;-88
2021/03/07 12:12:48;;;;;;;0.20;0.20;;;34.50;99.90;;;;;;4840361;28;20534;-84
2021/03/07 12:15:13;;;;;;;0.20;0.20;;;33.80;99.90;;;;;;4844112;28;20191;-81
2021/03/07 12:17:36;;;;;;;0.13;0.13;;;33.10;99.90;;;;;;4860417;28;20280;-83
2021/03/07 12:19:59;;;;;;;0.20;0.20;;;33.10;99.90;;;;;;4845711;28;20190;-84
2021/03/07 12:22:24;;;;;;;0.20;0.20;;;32.70;99.90;;;;;;4851884;28;20226;-86
2021/03/07 12:24:48;;;;;;;0.20;0.20;;;32.20;99.90;;;;;;4849477;28;20195;-85
2021/03/07 12:27:11;;;;;;;0.20;0.20;;;32.00;99.90;;;;;;4850455;28;20715;-81
2021/03/07 12:29:36;;;;;;;0.20;0.20;;;31.00;99.90;;;;;;4848536;28;20256;-77
2021/03/07 12:31:59;;;;;;;0.10;0.10;;;30.40;99.90;;;;;;4844913;28;20867;-87
2021/03/07 12:34:21;;;;;;;0.20;0.20;;;30.30;99.90;;;;;;4842467;28;20225;-83
2021/03/07 12:36:44;;;;;;;0.20;0.20;;;30.00;99.90;;;;;;4841251;28;20197;-82